createdAt,value
2018-07-13T00:02:17.962Z,1.40
2018-07-13T00:04:46.346Z,1.13
2018-07-13T00:07:14.752Z,1.57
2018-07-13T00:09:43.158Z,1.07
2018-07-13T00:12:11.524Z,1.33
2018-07-13T00:14:50.026Z,1.83
2018-07-13T00:17:18.502Z,2.10
2018-07-13T00:19:46.840Z,1.83
2018-07-13T00:22:15.250Z,1.70
2018-07-13T00:24:43.656Z,1.53
2018-07-13T00:27:12.048Z,1.40
2018-07-13T00:29:40.464Z,1.40
2018-07-13T00:32:08.852Z,1.57
2018-07-13T00:34:37.253Z,1.50
2018-07-13T00:37:05.666Z,1.20
2018-07-13T00:39:34.032Z,1.47
2018-07-13T00:42:02.356Z,1.17
2018-07-13T00:44:30.738Z,1.20
2018-07-13T00:46:59.173Z,1.77
2018-07-13T00:49:27.562Z,1.80
2018-07-13T00:51:55.916Z,1.73
2018-07-13T00:54:24.459Z,1.07
2018-07-13T00:56:52.818Z,1.70
2018-07-13T00:59:21.160Z,1.33
2018-07-13T01:01:49.619Z,1.60
2018-07-13T01:04:18.025Z,1.73
2018-07-13T01:06:46.530Z,2.27
2018-07-13T01:09:14.934Z,1.53
2018-07-13T01:11:43.322Z,1.50
2018-07-13T01:14:11.746Z,1.90
2018-07-13T01:16:40.178Z,1.40
2018-07-13T01:19:08.622Z,1.17
2018-07-13T01:21:37.991Z,1.60
2018-07-13T01:24:06.580Z,1.50
2018-07-13T01:26:35.022Z,1.77
2018-07-13T01:29:03.554Z,1.63
2018-07-13T01:31:31.945Z,1.50
2018-07-13T01:34:00.330Z,1.53
2018-07-13T01:36:28.814Z,1.73
2018-07-13T01:38:57.351Z,1.70
2018-07-13T01:41:25.686Z,2.30
2018-07-13T01:43:54.101Z,2.00
2018-07-13T01:46:22.494Z,1.10
2018-07-13T01:48:50.896Z,1.73
2018-07-13T01:51:19.337Z,1.60
2018-07-13T01:53:47.828Z,1.70
2018-07-13T01:56:16.252Z,2.50
2018-07-13T01:58:44.741Z,1.60
2018-07-13T02:01:13.178Z,1.90
2018-07-13T02:03:41.750Z,1.60
2018-07-13T02:06:10.202Z,1.60
2018-07-13T02:08:38.672Z,1.20
2018-07-13T02:11:07.002Z,1.70
2018-07-13T02:13:35.382Z,1.50
2018-07-13T02:16:03.794Z,1.47
2018-07-13T02:18:32.236Z,1.20
2018-07-13T02:21:00.766Z,1.50
2018-07-13T02:23:29.161Z,1.30
2018-07-13T02:25:57.550Z,1.60
2018-07-13T02:28:26.064Z,1.80
2018-07-13T02:30:54.529Z,1.87
2018-07-13T02:33:22.910Z,1.60
2018-07-13T02:35:51.471Z,1.80
2018-07-13T02:38:19.991Z,1.60
2018-07-13T02:40:48.386Z,1.07
2018-07-13T02:43:16.786Z,1.43
2018-07-13T02:45:45.151Z,1.80
2018-07-13T02:48:13.538Z,1.70
2018-07-13T02:50:41.937Z,1.70
2018-07-13T02:53:10.315Z,1.50
2018-07-13T02:55:38.700Z,1.33
2018-07-13T02:58:07.076Z,1.80
2018-07-13T03:00:35.425Z,1.70
2018-07-13T03:03:03.589Z,1.87
2018-07-13T03:05:32.003Z,2.27
2018-07-13T03:08:00.395Z,1.60
2018-07-13T03:10:28.775Z,1.63
2018-07-13T03:12:57.230Z,2.03
2018-07-13T03:15:25.599Z,2.00
2018-07-13T03:17:53.951Z,1.87
2018-07-13T03:20:22.338Z,1.73
2018-07-13T03:22:50.836Z,1.83
2018-07-13T03:25:19.265Z,1.97
2018-07-13T03:27:47.636Z,1.63
2018-07-13T03:30:16.267Z,1.80
2018-07-13T03:32:44.347Z,1.53
2018-07-13T03:35:12.757Z,2.00
2018-07-13T03:37:41.172Z,2.37
2018-07-13T03:40:09.603Z,2.10
2018-07-13T03:42:37.929Z,2.60
2018-07-13T03:45:06.314Z,2.27
2018-07-13T03:47:34.807Z,1.70
2018-07-13T03:50:03.287Z,2.23
2018-07-13T03:52:31.655Z,1.90
2018-07-13T03:55:00.143Z,2.20
2018-07-13T03:57:28.578Z,2.20
2018-07-13T03:59:56.974Z,2.40
2018-07-13T04:02:25.490Z,1.67
2018-07-13T04:04:53.851Z,2.40
2018-07-13T04:07:22.205Z,2.47
2018-07-13T04:09:50.607Z,1.43
2018-07-13T04:12:19.007Z,2.03
2018-07-13T04:14:47.454Z,2.03
2018-07-13T04:17:15.762Z,2.40
2018-07-13T04:19:44.085Z,2.53
2018-07-13T04:22:12.869Z,2.60
2018-07-13T04:24:41.269Z,2.40
2018-07-13T04:27:09.679Z,2.07
2018-07-13T04:29:37.800Z,2.37
2018-07-13T04:32:06.364Z,2.97
2018-07-13T04:34:34.755Z,2.67
2018-07-13T04:37:03.168Z,2.67
2018-07-13T04:39:31.538Z,2.40
2018-07-13T04:41:59.911Z,2.00
2018-07-13T04:44:28.428Z,1.83
2018-07-13T04:46:56.775Z,2.17
2018-07-13T04:49:25.191Z,2.70
2018-07-13T04:51:53.557Z,2.47
2018-07-13T04:54:21.908Z,3.10
2018-07-13T04:56:50.517Z,2.93
2018-07-13T04:59:19.195Z,3.13
2018-07-13T05:01:48.027Z,2.33
2018-07-13T05:04:16.533Z,2.50
2018-07-13T05:06:45.047Z,3.30
2018-07-13T05:09:13.434Z,3.23
2018-07-13T05:11:43.984Z,3.30
2018-07-13T05:14:12.435Z,3.43
2018-07-13T05:16:40.829Z,3.50
2018-07-13T05:19:09.230Z,3.47
2018-07-13T05:21:37.634Z,2.60
2018-07-13T05:24:06.223Z,3.23
2018-07-13T05:26:34.716Z,3.47
2018-07-13T05:29:03.211Z,3.20
2018-07-13T05:31:31.603Z,3.80
2018-07-13T05:34:00.069Z,4.00
2018-07-13T05:36:28.561Z,3.80
2018-07-13T05:38:56.993Z,2.67
2018-07-13T05:41:25.447Z,2.70
2018-07-13T05:43:53.967Z,3.17
2018-07-13T05:46:22.327Z,3.70
2018-07-13T05:48:50.693Z,3.93
2018-07-13T05:51:19.130Z,4.47
2018-07-13T05:53:47.555Z,4.07
2018-07-13T05:56:15.963Z,3.50
2018-07-13T05:58:44.377Z,3.40
2018-07-13T06:01:13.304Z,4.47
2018-07-13T06:03:41.703Z,3.63
2018-07-13T06:06:10.167Z,6.00
2018-07-13T06:08:38.577Z,4.90
2018-07-13T06:11:07.088Z,5.40
2018-07-13T06:13:35.490Z,3.93
2018-07-13T06:16:03.942Z,3.73
2018-07-13T06:18:32.521Z,4.77
2018-07-13T06:21:01.034Z,3.60
2018-07-13T06:23:29.388Z,4.03
2018-07-13T06:25:57.875Z,3.73
2018-07-13T06:28:26.308Z,4.10
2018-07-13T06:30:54.778Z,4.03
2018-07-13T06:33:23.142Z,3.80
2018-07-13T06:35:51.594Z,3.30
2018-07-13T06:38:20.048Z,3.33
2018-07-13T06:40:48.866Z,4.30
2018-07-13T06:43:17.484Z,3.70
2018-07-13T06:45:45.830Z,4.57
2018-07-13T06:48:14.312Z,3.33
2018-07-13T06:50:42.812Z,3.17
2018-07-13T06:53:13.886Z,3.17
2018-07-13T06:55:42.381Z,3.50
2018-07-13T06:58:22.157Z,2.87
2018-07-13T07:00:58.381Z,3.37
2018-07-13T07:03:27.924Z,4.10
2018-07-13T07:06:00.727Z,4.00
2018-07-13T07:08:29.283Z,2.93
2018-07-13T07:10:58.500Z,2.50
2018-07-13T07:13:28.008Z,3.37
2018-07-13T07:15:56.475Z,2.23
2018-07-13T07:18:25.047Z,2.17
2018-07-13T07:20:53.881Z,2.97
2018-07-13T07:23:22.411Z,2.13
2018-07-13T07:25:50.789Z,2.93
2018-07-13T07:28:19.282Z,3.80
2018-07-13T07:30:47.887Z,3.10
2018-07-13T07:33:16.257Z,3.90
2018-07-13T07:35:44.755Z,2.97
2018-07-13T07:38:12.833Z,2.47
2018-07-13T07:40:41.373Z,2.63
2018-07-13T07:43:09.757Z,2.07
2018-07-13T07:45:38.218Z,2.87
2018-07-13T07:48:06.901Z,3.63
2018-07-13T07:50:35.440Z,3.70
2018-07-13T07:53:03.814Z,3.60
2018-07-13T07:55:32.366Z,2.50
2018-07-13T07:58:00.860Z,3.07
2018-07-13T08:00:29.293Z,2.77
2018-07-13T08:02:57.695Z,2.80
2018-07-13T08:05:26.298Z,3.30
2018-07-13T08:07:54.677Z,2.63
2018-07-13T08:10:23.092Z,2.80
2018-07-13T08:12:51.779Z,3.00
2018-07-13T08:15:20.280Z,2.60
2018-07-13T08:17:48.734Z,3.10
2018-07-13T08:20:22.439Z,2.70
2018-07-13T08:22:55.411Z,3.00
2018-07-13T08:25:25.072Z,2.63
2018-07-13T08:27:57.359Z,3.17
2018-07-13T08:30:29.454Z,2.60
2018-07-13T08:32:58.022Z,3.53
2018-07-13T08:35:26.455Z,3.30
2018-07-13T08:37:54.940Z,3.00
2018-07-13T08:40:23.371Z,2.90
2018-07-13T08:42:51.897Z,3.73
2018-07-13T08:45:20.353Z,2.57
2018-07-13T08:47:48.704Z,3.10
2018-07-13T08:50:17.141Z,2.50
2018-07-13T08:52:45.493Z,2.50
2018-07-13T08:55:15.611Z,2.60
2018-07-13T08:57:45.766Z,2.40
2018-07-13T09:00:14.197Z,2.73
2018-07-13T09:02:42.551Z,2.93
2018-07-13T09:05:11.008Z,2.93
2018-07-13T09:07:39.691Z,2.50
2018-07-13T09:10:09.342Z,3.30
2018-07-13T09:12:38.338Z,2.80
2018-07-13T09:15:07.439Z,2.93
2018-07-13T09:17:35.994Z,2.77
2018-07-13T09:20:05.786Z,2.70
2018-07-13T09:22:34.106Z,4.87
2018-07-13T09:25:02.483Z,3.63
2018-07-13T09:27:30.960Z,2.40
2018-07-13T09:29:59.410Z,2.70
2018-07-13T09:32:27.818Z,2.17
2018-07-13T09:34:56.244Z,3.00
2018-07-13T09:37:24.306Z,2.47
2018-07-13T09:39:52.837Z,2.30
2018-07-13T09:42:21.376Z,2.10
2018-07-13T09:44:49.736Z,2.30
2018-07-13T09:47:18.106Z,2.00
2018-07-13T09:49:46.539Z,2.03
2018-07-13T09:52:14.934Z,1.97
2018-07-13T09:54:43.456Z,2.20
2018-07-13T09:57:11.876Z,2.60
2018-07-13T09:59:40.403Z,2.30
2018-07-13T10:02:08.874Z,2.53
2018-07-13T10:04:37.445Z,2.67
2018-07-13T10:07:06.426Z,2.40
2018-07-13T10:09:35.000Z,2.50
2018-07-13T10:12:03.774Z,1.90
2018-07-13T10:14:32.147Z,1.87
2018-07-13T10:17:00.536Z,1.93
2018-07-13T10:19:29.198Z,2.23
2018-07-13T10:21:57.572Z,1.80
2018-07-13T10:24:25.747Z,2.00
2018-07-13T10:26:55.284Z,1.67
2018-07-13T10:29:27.274Z,1.90
2018-07-13T10:31:55.894Z,1.80
2018-07-13T10:34:24.490Z,2.27
2018-07-13T10:37:02.344Z,2.70
2018-07-13T10:39:31.048Z,1.93
2018-07-13T10:41:59.500Z,2.70
2018-07-13T10:44:27.941Z,1.70
2018-07-13T10:46:56.313Z,1.90
2018-07-13T10:49:24.724Z,1.87
2018-07-13T10:51:53.402Z,2.07
2018-07-13T10:54:22.291Z,1.80
2018-07-13T10:56:50.917Z,1.93
2018-07-13T10:59:19.529Z,1.87
2018-07-13T11:01:47.618Z,1.57
2018-07-13T11:04:16.034Z,1.57
2018-07-13T11:06:45.405Z,2.20
2018-07-13T11:09:13.805Z,2.27
2018-07-13T11:11:42.228Z,1.90
2018-07-13T11:14:11.255Z,1.97
2018-07-13T11:16:41.444Z,1.70
2018-07-13T11:19:09.902Z,2.30
2018-07-13T11:21:39.067Z,1.80
2018-07-13T11:24:07.440Z,1.40
2018-07-13T11:26:35.886Z,1.83
2018-07-13T11:29:04.289Z,1.87
2018-07-13T11:31:32.717Z,1.50
2018-07-13T11:34:01.270Z,1.90
2018-07-13T11:36:29.654Z,1.50
2018-07-13T11:38:58.088Z,2.87
2018-07-13T11:41:26.250Z,2.40
2018-07-13T11:43:54.623Z,2.10
2018-07-13T11:46:23.016Z,2.80
2018-07-13T11:48:51.462Z,1.60
2018-07-13T11:51:19.827Z,2.00
2018-07-13T11:53:48.300Z,1.90
2018-07-13T11:56:16.754Z,2.53
2018-07-13T11:58:45.189Z,1.90
2018-07-13T12:01:13.760Z,1.57
2018-07-13T12:03:42.128Z,3.03
2018-07-13T12:06:10.938Z,2.20
2018-07-13T12:08:39.297Z,1.67
2018-07-13T12:11:07.853Z,1.90
2018-07-13T12:13:36.353Z,1.70
2018-07-13T12:16:05.234Z,2.03
2018-07-13T12:18:33.680Z,2.03
2018-07-13T12:21:02.408Z,1.57
2018-07-13T12:23:30.868Z,1.47
2018-07-13T12:25:59.276Z,2.13
2018-07-13T12:28:27.653Z,1.50
2018-07-13T12:30:56.056Z,1.97
2018-07-13T12:33:24.506Z,1.80
2018-07-13T12:35:52.882Z,1.47
2018-07-13T12:38:21.282Z,1.80
2018-07-13T12:40:49.755Z,2.20
2018-07-13T12:43:18.404Z,1.83
2018-07-13T12:45:46.916Z,1.40
2018-07-13T12:48:15.376Z,1.67
2018-07-13T12:50:43.780Z,1.53
2018-07-13T12:53:12.157Z,1.87
2018-07-13T12:55:40.580Z,1.70
2018-07-13T12:58:08.891Z,1.20
2018-07-13T13:00:37.281Z,1.67
2018-07-13T13:03:05.699Z,1.43
2018-07-13T13:05:34.056Z,1.67
2018-07-13T13:08:02.359Z,1.47
2018-07-13T13:10:30.472Z,1.50
2018-07-13T13:12:59.022Z,1.73
2018-07-13T13:15:27.556Z,1.33
2018-07-13T13:17:55.886Z,1.43
2018-07-13T13:20:24.413Z,1.33
2018-07-13T13:22:52.792Z,1.73
2018-07-13T13:25:21.292Z,1.60
2018-07-13T13:27:49.716Z,1.40
2018-07-13T13:30:18.226Z,1.47
2018-07-13T13:32:46.705Z,1.33
2018-07-13T13:35:15.194Z,1.53
2018-07-13T13:37:43.515Z,1.67
2018-07-13T13:40:11.854Z,1.60
2018-07-13T13:42:40.284Z,1.57
2018-07-13T13:45:08.531Z,1.40
2018-07-13T13:47:36.984Z,1.70
2018-07-13T13:50:05.440Z,1.43
2018-07-13T13:52:33.858Z,1.40
2018-07-13T13:55:02.361Z,1.63
2018-07-13T13:57:30.846Z,1.60
2018-07-13T13:59:59.303Z,1.60
2018-07-13T14:02:27.667Z,1.87
2018-07-13T14:04:56.085Z,1.10
2018-07-13T14:07:24.514Z,1.70
2018-07-13T14:09:52.877Z,0.90
2018-07-13T14:12:21.409Z,1.70
2018-07-13T14:14:49.858Z,1.60
2018-07-13T14:17:18.214Z,1.40
2018-07-13T14:19:46.699Z,1.27
2018-07-13T14:22:15.199Z,1.10
2018-07-13T14:24:43.657Z,1.23
2018-07-13T14:27:12.232Z,1.57
2018-07-13T14:29:40.726Z,1.00
2018-07-13T14:32:09.205Z,1.40
2018-07-13T14:34:37.688Z,1.50
2018-07-13T14:37:06.007Z,1.40
2018-07-13T14:39:34.447Z,1.20
2018-07-13T14:42:02.839Z,1.50
2018-07-13T14:44:31.153Z,1.20
2018-07-13T14:46:59.576Z,1.23
2018-07-13T14:49:27.922Z,1.27
2018-07-13T14:51:56.296Z,1.23
2018-07-13T14:54:24.687Z,1.50
2018-07-13T14:56:53.166Z,1.07
2018-07-13T14:59:21.619Z,1.70
2018-07-13T15:01:49.960Z,1.30
2018-07-13T15:04:18.724Z,1.07
2018-07-13T15:06:47.330Z,1.40
2018-07-13T15:09:15.744Z,1.73
2018-07-13T15:11:44.366Z,1.40
2018-07-13T15:14:12.729Z,0.97
2018-07-13T15:16:41.192Z,1.30
2018-07-13T15:19:09.670Z,1.40
2018-07-13T15:21:38.085Z,1.63
2018-07-13T15:24:06.470Z,1.43
2018-07-13T15:26:34.782Z,1.53
2018-07-13T15:29:03.283Z,1.97
2018-07-13T15:31:31.758Z,1.43
2018-07-13T15:34:00.116Z,1.40
2018-07-13T15:36:28.618Z,1.50
2018-07-13T15:38:57.006Z,1.60
2018-07-13T15:41:25.690Z,1.20
2018-07-13T15:43:54.085Z,1.27
2018-07-13T15:46:22.454Z,1.27
2018-07-13T15:48:50.793Z,1.40
2018-07-13T15:51:19.279Z,1.37
2018-07-13T15:53:47.631Z,1.60
2018-07-13T15:56:16.051Z,1.73
2018-07-13T15:58:44.632Z,1.87
2018-07-13T16:01:12.993Z,1.50
2018-07-13T16:03:41.409Z,1.30
2018-07-13T16:06:09.792Z,1.33
2018-07-13T16:08:38.200Z,0.97
2018-07-13T16:11:06.620Z,1.70
2018-07-13T16:13:35.088Z,1.70
2018-07-13T16:16:03.579Z,1.17
2018-07-13T16:18:32.025Z,1.77
2018-07-13T16:21:00.359Z,3.30
2018-07-13T16:23:28.706Z,1.93
2018-07-13T16:25:57.138Z,1.60
2018-07-13T16:28:25.499Z,1.63
2018-07-13T16:30:53.940Z,1.93
2018-07-13T16:33:22.391Z,1.87
2018-07-13T16:35:50.821Z,1.93
2018-07-13T16:38:19.266Z,1.23
2018-07-13T16:40:47.938Z,1.57
2018-07-13T16:43:16.440Z,1.67
2018-07-13T16:45:44.924Z,1.90
2018-07-13T16:48:13.364Z,2.00
2018-07-13T16:50:41.873Z,1.67
2018-07-13T16:53:10.194Z,1.97
2018-07-13T16:55:38.620Z,1.20
2018-07-13T16:58:07.156Z,1.57
2018-07-13T17:00:35.582Z,1.30
2018-07-13T17:03:04.089Z,1.83
2018-07-13T17:05:32.539Z,1.20
2018-07-13T17:08:00.935Z,1.50
2018-07-13T17:10:29.363Z,1.60
2018-07-13T17:12:57.859Z,1.50
2018-07-13T17:15:26.249Z,1.30
2018-07-13T17:17:54.338Z,1.50
2018-07-13T17:20:22.779Z,1.67
2018-07-13T17:22:51.266Z,1.30
2018-07-13T17:25:19.600Z,1.30
2018-07-13T17:27:48.170Z,1.63
2018-07-13T17:30:16.577Z,1.10
2018-07-13T17:32:45.208Z,1.10
2018-07-13T17:35:13.771Z,1.47
2018-07-13T17:37:42.039Z,1.80
2018-07-13T17:40:10.585Z,1.30
2018-07-13T17:42:39.157Z,1.60
2018-07-13T17:45:07.670Z,1.50
2018-07-13T17:47:36.063Z,1.50
2018-07-13T17:50:04.699Z,1.30
2018-07-13T17:52:33.150Z,1.50
2018-07-13T17:55:01.714Z,1.53
2018-07-13T17:57:30.291Z,1.07
2018-07-13T17:59:58.892Z,1.27
2018-07-13T18:02:26.956Z,2.17
2018-07-13T18:04:55.335Z,1.50
2018-07-13T18:07:23.726Z,1.20
2018-07-13T18:09:52.081Z,1.03
2018-07-13T18:12:20.498Z,1.20
2018-07-13T18:14:48.923Z,1.53
2018-07-13T18:17:17.386Z,1.50
2018-07-13T18:19:45.945Z,1.00
2018-07-13T18:22:14.317Z,0.97
2018-07-13T18:24:43.536Z,1.50
2018-07-13T18:27:11.976Z,1.37
2018-07-13T18:29:40.439Z,1.10
2018-07-13T18:32:08.965Z,1.37
2018-07-13T18:34:37.502Z,1.00
2018-07-13T18:37:06.196Z,1.60
2018-07-13T18:39:34.698Z,1.20
2018-07-13T18:42:03.130Z,1.43
2018-07-13T18:44:31.524Z,1.27
2018-07-13T18:47:00.133Z,1.10
2018-07-13T18:49:28.594Z,1.00
2018-07-13T18:51:56.975Z,1.10
2018-07-13T18:54:25.389Z,1.00
2018-07-13T18:56:54.010Z,1.10
2018-07-13T18:59:22.471Z,1.20
2018-07-13T19:01:50.964Z,1.10
2018-07-13T19:04:19.558Z,1.17
2018-07-13T19:06:47.993Z,0.97
2018-07-13T19:09:16.565Z,1.03
2018-07-13T19:11:44.926Z,1.30
2018-07-13T19:14:13.349Z,0.70
2018-07-13T19:16:41.866Z,1.13
2018-07-13T19:19:10.243Z,0.73
2018-07-13T19:21:38.758Z,1.50
2018-07-13T19:24:07.194Z,1.30
2018-07-13T19:26:35.842Z,1.00
2018-07-13T19:29:04.191Z,0.97
2018-07-13T19:31:32.764Z,0.77
2018-07-13T19:34:01.233Z,1.53
2018-07-13T19:36:29.793Z,0.93
2018-07-13T19:38:58.161Z,1.30
2018-07-13T19:41:26.589Z,1.10
2018-07-13T19:43:55.036Z,1.00
2018-07-13T19:46:23.541Z,1.20
2018-07-13T19:48:52.018Z,1.30
2018-07-13T19:51:20.366Z,1.80
2018-07-13T19:53:48.847Z,1.23
2018-07-13T19:56:17.290Z,0.83
2018-07-13T19:58:45.707Z,1.43
2018-07-13T20:01:14.109Z,1.33
2018-07-13T20:03:42.736Z,1.00
2018-07-13T20:06:11.101Z,1.37
2018-07-13T20:08:39.461Z,1.37
2018-07-13T20:11:07.941Z,1.10
2018-07-13T20:13:36.403Z,1.17
2018-07-13T20:16:04.772Z,0.90
2018-07-13T20:18:33.226Z,1.27
2018-07-13T20:21:01.673Z,1.67
2018-07-13T20:23:30.168Z,2.10
2018-07-13T20:25:58.714Z,1.90
2018-07-13T20:28:27.166Z,1.23
2018-07-13T20:30:55.890Z,1.70
2018-07-13T20:33:24.454Z,1.30
2018-07-13T20:35:59.244Z,1.40
2018-07-13T20:38:27.628Z,1.20
2018-07-13T20:40:55.948Z,1.43
2018-07-13T20:43:24.418Z,1.70
2018-07-13T20:45:52.830Z,1.80
2018-07-13T20:48:21.221Z,1.37
2018-07-13T20:50:49.721Z,1.53
2018-07-13T20:53:18.103Z,2.30
2018-07-13T20:55:46.494Z,2.70
2018-07-13T20:58:14.943Z,2.20
2018-07-13T21:00:43.286Z,2.37
2018-07-13T21:03:11.616Z,2.20
2018-07-13T21:05:40.036Z,2.77
2018-07-13T21:08:08.647Z,2.20
2018-07-13T21:10:36.966Z,2.23
2018-07-13T21:13:05.879Z,1.70
2018-07-13T21:15:35.097Z,2.03
2018-07-13T21:18:03.434Z,2.40
2018-07-13T21:20:31.886Z,1.77
2018-07-13T21:23:00.308Z,1.80
2018-07-13T21:25:28.705Z,1.67
2018-07-13T21:27:56.841Z,2.10
2018-07-13T21:30:25.163Z,1.90
2018-07-13T21:32:53.668Z,1.60
2018-07-13T21:35:22.234Z,1.60
2018-07-13T21:37:50.639Z,2.30
2018-07-13T21:40:19.096Z,2.00
2018-07-13T21:42:47.501Z,2.27
2018-07-13T21:45:15.879Z,1.90
2018-07-13T21:47:44.244Z,3.00
2018-07-13T21:50:12.649Z,1.90
2018-07-13T21:52:41.058Z,2.47
2018-07-13T21:55:09.437Z,2.30
2018-07-13T21:57:37.804Z,2.20
2018-07-13T22:00:06.529Z,2.40
2018-07-13T22:02:34.987Z,3.13
2018-07-13T22:05:03.342Z,2.10
2018-07-13T22:07:31.757Z,2.37
2018-07-13T22:10:00.362Z,2.47
2018-07-13T22:12:28.797Z,2.13
2018-07-13T22:14:57.273Z,2.57
2018-07-13T22:17:25.652Z,1.90
2018-07-13T22:19:54.063Z,2.40
2018-07-13T22:22:22.460Z,2.70
2018-07-13T22:24:50.934Z,2.47
2018-07-13T22:27:19.520Z,2.80
2018-07-13T22:29:47.888Z,3.00
2018-07-13T22:32:16.438Z,2.27
2018-07-13T22:34:44.780Z,2.47
2018-07-13T22:37:13.190Z,2.37
2018-07-13T22:39:41.648Z,2.67
2018-07-13T22:42:10.177Z,2.57
2018-07-13T22:44:38.525Z,1.83
2018-07-13T22:47:06.912Z,2.10
2018-07-13T22:49:35.337Z,1.93
2018-07-13T22:52:03.673Z,2.90
2018-07-13T22:54:32.001Z,2.30
2018-07-13T22:57:00.429Z,2.83
2018-07-13T22:59:28.814Z,2.30
2018-07-13T23:01:57.176Z,2.57
2018-07-13T23:04:25.586Z,1.83
2018-07-13T23:06:53.825Z,2.20
2018-07-13T23:09:22.281Z,2.90
2018-07-13T23:11:50.821Z,2.03
2018-07-13T23:14:19.205Z,2.37
2018-07-13T23:16:47.625Z,2.60
2018-07-13T23:19:16.069Z,2.17
2018-07-13T23:21:44.643Z,2.70
2018-07-13T23:24:13.147Z,2.60
2018-07-13T23:26:41.497Z,2.33
2018-07-13T23:29:10.297Z,2.77
2018-07-13T23:31:38.681Z,2.40
2018-07-13T23:34:07.239Z,2.30
2018-07-13T23:36:35.608Z,2.57
2018-07-13T23:39:04.887Z,3.33
2018-07-13T23:41:33.218Z,2.43
2018-07-13T23:44:01.594Z,2.60
2018-07-13T23:46:29.672Z,2.27
2018-07-13T23:48:58.204Z,2.93
2018-07-13T23:51:26.612Z,3.37
2018-07-13T23:53:54.981Z,2.37
2018-07-13T23:56:23.575Z,2.70
2018-07-13T23:58:52.030Z,2.33
